Time;durP1;ratioP1;P1;durP2;ratioP2;P2;SDS_P1;SDS_P2;PMS_P1;PMS_P2;Temp;Humidity;BMP_temperature;BMP_pressure;BME280_temperature;BME280_humidity;BME280_pressure;Samples;Min_cycle;Max_cycle;Signal;HPM_P1;HPM_P2
2022/04/13 00:00:11;;;;;;;;;;;;;;;;;;2141146;27;20021;-46
2022/04/13 00:01:13;;;;;;;;;;;;;;;;;;2141196;27;20009;-45
2022/04/13 00:02:14;;;;;;;;;;;;;;;;;;2141216;27;20302;-49
2022/04/13 00:03:15;;;;;;;;;;;;;;;;;;2140992;27;20454;-50
2022/04/13 00:04:18;;;;;;;;;;;;;;;;;;2141203;27;20051;-50
2022/04/13 00:05:18;;;;;;;;;;;;;;;;;;2141072;27;20018;-52
2022/04/13 00:06:19;;;;;;;;;;;;;;;;;;2141298;27;19923;-50
2022/04/13 00:07:20;;;;;;;;;;;;;;;;;;2141060;27;19927;-54
2022/04/13 00:08:21;;;;;;;;;;;;;;;;;;2140964;27;19927;-50
2022/04/13 00:09:22;;;;;;;;;;;;;;;;;;2141098;27;20375;-52
2022/04/13 00:10:23;;;;;;;;;;;;;;;;;;2141112;27;19923;-50
2022/04/13 00:11:24;;;;;;;;;;;;;;;;;;2141304;27;19960;-44
2022/04/13 00:12:25;;;;;;;;;;;;;;;;;;2141227;27;20382;-49
2022/04/13 00:13:26;;;;;;;;;;;;;;;;;;2141070;27;19927;-51
2022/04/13 00:14:27;;;;;;;;;;;;;;;;;;2136292;27;19938;-45
2022/04/13 00:15:28;;;;;;;;;;;;;;;;;;2132466;27;20003;-45
2022/04/13 00:16:29;;;;;;;;;;;;;;;;;;2132325;27;19924;-45
2022/04/13 00:17:30;;;;;;;;;;;;;;;;;;2132319;27;20391;-44
2022/04/13 00:18:31;;;;;;;;;;;;;;;;;;2132281;27;19927;-45
2022/04/13 00:19:31;;;;;;;;;;;;;;;;;;2132290;27;20358;-45
2022/04/13 00:20:32;;;;;;;;;;;;;;;;;;2132262;27;20018;-45
2022/04/13 00:21:33;;;;;;;;;;;;;;;;;;2132153;27;20433;-45
2022/04/13 00:22:34;;;;;;;;;;;;;;;;;;2132269;27;19935;-44
2022/04/13 00:23:35;;;;;;;;;;;;;;;;;;2132271;27;20003;-45
2022/04/13 00:24:36;;;;;;;;;;;;;;;;;;2132227;27;19962;-45
2022/04/13 00:25:38;;;;;;;;;;;;;;;;;;2132271;27;20383;-44
2022/04/13 00:26:39;;;;;;;;;;;;;;;;;;2132279;27;20017;-44
2022/04/13 00:27:40;;;;;;;;;;;;;;;;;;2132307;27;20089;-44
2022/04/13 00:28:41;;;;;;;;;;;;;;;;;;2132209;27;19927;-45
2022/04/13 00:29:42;;;;;;;;;;;;;;;;;;2132463;27;20011;-45
2022/04/13 00:30:43;;;;;;;;;;;;;;;;;;2132173;27;20017;-44
2022/04/13 00:31:44;;;;;;;;;;;;;;;;;;2132116;27;19930;-47
2022/04/13 00:32:45;;;;;;;;;;;;;;;;;;2132176;27;20402;-45
2022/04/13 00:33:46;;;;;;;;;;;;;;;;;;2132152;27;20027;-45
2022/04/13 00:34:47;;;;;;;;;;;;;;;;;;2132032;27;19923;-45
2022/04/13 00:35:47;;;;;;;;;;;;;;;;;;2132427;27;19966;-44
2022/04/13 00:36:48;;;;;;;;;;;;;;;;;;2132066;27;19930;-44
2022/04/13 00:37:49;;;;;;;;;;;;;;;;;;2132298;27;20407;-45
2022/04/13 00:38:50;;;;;;;;;;;;;;;;;;2132388;27;19970;-45
2022/04/13 00:39:51;;;;;;;;;;;;;;;;;;2132291;27;19927;-49
2022/04/13 00:40:52;;;;;;;;;;;;;;;;;;2132197;27;19923;-50
2022/04/13 00:41:53;;;;;;;;;;;;;;;;;;2137294;27;20495;-51
2022/04/13 00:42:54;;;;;;;;;;;;;;;;;;2140952;27;19926;-51
2022/04/13 00:43:55;;;;;;;;;;;;;;;;;;2140911;27;19926;-49
2022/04/13 00:44:56;;;;;;;;;;;;;;;;;;2140883;27;20013;-49
2022/04/13 00:45:57;;;;;;;;;;;;;;;;;;2140843;27;19954;-49
2022/04/13 00:47:01;;;;;;;;;;;;;;;;;;2140663;27;20334;-49
2022/04/13 00:48:01;;;;;;;;;;;;;;;;;;2140684;27;20394;-50
2022/04/13 00:49:02;;;;;;;;;;;;;;;;;;2132154;27;19923;-50
2022/04/13 00:50:03;;;;;;;;;;;;;;;;;;2132082;27;20450;-50
2022/04/13 00:51:04;;;;;;;;;;;;;;;;;;2132032;27;19968;-49
2022/04/13 00:52:05;;;;;;;;;;;;;;;;;;2132219;27;19974;-49
2022/04/13 00:53:06;;;;;;;;;;;;;;;;;;2132076;27;19970;-49
2022/04/13 00:54:07;;;;;;;;;;;;;;;;;;2132286;27;19923;-49
2022/04/13 00:55:08;;;;;;;;;;;;;;;;;;2132011;27;19970;-49
2022/04/13 00:56:09;;;;;;;;;;;;;;;;;;2139228;27;20381;-44
2022/04/13 00:57:10;;;;;;;;;;;;;;;;;;2140876;27;20017;-44
2022/04/13 00:58:13;;;;;;;;;;;;;;;;;;2140753;27;20034;-44
2022/04/13 00:59:13;;;;;;;;;;;;;;;;;;2140990;27;20001;-44
2022/04/13 01:00:15;;;;;;;;;;;;;;;;;;2140709;27;20387;-45
2022/04/13 01:01:15;;;;;;;;;;;;;;;;;;2140714;27;19923;-44
2022/04/13 01:02:17;;;;;;;;;;;;;;;;;;2140580;27;19923;-44
2022/04/13 01:03:18;;;;;;;;;;;;;;;;;;2140590;27;19927;-44
2022/04/13 01:04:19;;;;;;;;;;;;;;;;;;2140811;27;19922;-44
2022/04/13 01:05:19;;;;;;;;;;;;;;;;;;2140804;27;19930;-45
2022/04/13 01:06:20;;;;;;;;;;;;;;;;;;2140277;27;19907;-49
2022/04/13 01:07:21;;;;;;;;;;;;;;;;;;2140763;27;20006;-49
2022/04/13 01:08:22;;;;;;;;;;;;;;;;;;2140776;27;20014;-49
2022/04/13 01:09:25;;;;;;;;;;;;;;;;;;2140811;27;19962;-44
2022/04/13 01:10:26;;;;;;;;;;;;;;;;;;2140714;27;20387;-44
2022/04/13 01:11:27;;;;;;;;;;;;;;;;;;2140693;27;19965;-44
2022/04/13 01:12:28;;;;;;;;;;;;;;;;;;2140602;27;19923;-44
2022/04/13 01:13:28;;;;;;;;;;;;;;;;;;2140625;27;19962;-44
2022/04/13 01:14:29;;;;;;;;;;;;;;;;;;2140571;27;19923;-45
2022/04/13 01:15:30;;;;;;;;;;;;;;;;;;2140755;27;19962;-45
2022/04/13 01:16:34;;;;;;;;;;;;;;;;;;2140661;27;20021;-44
2022/04/13 01:17:34;;;;;;;;;;;;;;;;;;2140485;27;20290;-44
2022/04/13 01:18:35;;;;;;;;;;;;;;;;;;2140553;27;19930;-44
2022/04/13 01:19:37;;;;;;;;;;;;;;;;;;2139929;27;20467;-44
2022/04/13 01:20:39;;;;;;;;;;;;;;;;;;2140675;27;19958;-44
2022/04/13 01:21:45;;;;;;;;;;;;;;;;;;2140325;27;19973;-45
2022/04/13 01:22:47;;;;;;;;;;;;;;;;;;2140636;27;19923;-44
2022/04/13 01:23:50;;;;;;;;;;;;;;;;;;2140618;27;19968;-44
2022/04/13 01:24:51;;;;;;;;;;;;;;;;;;2140417;27;19966;-44
2022/04/13 01:25:51;;;;;;;;;;;;;;;;;;2140535;27;19969;-44
2022/04/13 01:26:53;;;;;;;;;;;;;;;;;;2140354;27;19923;-44
2022/04/13 01:27:53;;;;;;;;;;;;;;;;;;2140491;27;19966;-44
2022/04/13 01:28:54;;;;;;;;;;;;;;;;;;2140482;27;20006;-44
2022/04/13 01:29:55;;;;;;;;;;;;;;;;;;2140822;27;20269;-44
2022/04/13 01:30:56;;;;;;;;;;;;;;;;;;2140435;27;19923;-44
2022/04/13 01:31:58;;;;;;;;;;;;;;;;;;2140659;27;20009;-44
2022/04/13 01:32:59;;;;;;;;;;;;;;;;;;2140432;27;20002;-44
2022/04/13 01:34:00;;;;;;;;;;;;;;;;;;2140374;27;19962;-44
2022/04/13 01:35:01;;;;;;;;;;;;;;;;;;2140301;27;20025;-44
2022/04/13 01:36:02;;;;;;;;;;;;;;;;;;2140414;27;20307;-44
2022/04/13 01:37:03;;;;;;;;;;;;;;;;;;2140451;27;19930;-44
2022/04/13 01:38:03;;;;;;;;;;;;;;;;;;2140234;27;20399;-45
2022/04/13 01:39:04;;;;;;;;;;;;;;;;;;2140480;27;19979;-44
2022/04/13 01:40:05;;;;;;;;;;;;;;;;;;2140661;27;20025;-45
2022/04/13 01:41:06;;;;;;;;;;;;;;;;;;2140512;27;19922;-45
2022/04/13 01:42:07;;;;;;;;;;;;;;;;;;2140370;27;20061;-44
2022/04/13 01:43:08;;;;;;;;;;;;;;;;;;2140607;27;20328;-43
2022/04/13 01:44:09;;;;;;;;;;;;;;;;;;2140370;27;20013;-44
2022/04/13 01:45:09;;;;;;;;;;;;;;;;;;2140571;27;20260;-44
2022/04/13 01:46:10;;;;;;;;;;;;;;;;;;2140344;27;20017;-45
2022/04/13 01:47:11;;;;;;;;;;;;;;;;;;2140451;27;19940;-44
2022/04/13 01:48:12;;;;;;;;;;;;;;;;;;2140429;27;19923;-44
2022/04/13 01:49:13;;;;;;;;;;;;;;;;;;2140373;27;19923;-44
2022/04/13 01:50:14;;;;;;;;;;;;;;;;;;2140307;27;19923;-43
2022/04/13 01:51:17;;;;;;;;;;;;;;;;;;2140265;27;20020;-45
2022/04/13 01:52:17;;;;;;;;;;;;;;;;;;2140079;27;19936;-43
2022/04/13 01:53:18;;;;;;;;;;;;;;;;;;2140303;27;19964;-43
2022/04/13 01:54:19;;;;;;;;;;;;;;;;;;2140362;27;20411;-43
2022/04/13 01:55:20;;;;;;;;;;;;;;;;;;2140193;27;19923;-44
2022/04/13 01:56:21;;;;;;;;;;;;;;;;;;2140376;27;19984;-49
2022/04/13 01:57:23;;;;;;;;;;;;;;;;;;2140466;27;19923;-50
2022/04/13 01:58:24;;;;;;;;;;;;;;;;;;2140270;27;19966;-48
2022/04/13 01:59:25;;;;;;;;;;;;;;;;;;2140341;27;20331;-52
2022/04/13 02:00:25;;;;;;;;;;;;;;;;;;2140361;27;19962;-51
2022/04/13 02:01:27;;;;;;;;;;;;;;;;;;2140331;27;20010;-51
2022/04/13 02:02:28;;;;;;;;;;;;;;;;;;2140194;27;20357;-50
2022/04/13 02:03:30;;;;;;;;;;;;;;;;;;2140265;27;20268;-49
2022/04/13 02:04:31;;;;;;;;;;;;;;;;;;2140102;27;20430;-50
2022/04/13 02:05:32;;;;;;;;;;;;;;;;;;2140463;27;19927;-44
2022/04/13 02:06:34;;;;;;;;;;;;;;;;;;2140209;27;19970;-44
2022/04/13 02:07:35;;;;;;;;;;;;;;;;;;2140102;27;19948;-44
2022/04/13 02:08:35;;;;;;;;;;;;;;;;;;2140227;27;20006;-43
2022/04/13 02:09:37;;;;;;;;;;;;;;;;;;2140178;27;19930;-44
2022/04/13 02:10:37;;;;;;;;;;;;;;;;;;2140336;27;20507;-44
2022/04/13 02:11:38;;;;;;;;;;;;;;;;;;2140099;27;20009;-43
2022/04/13 02:12:39;;;;;;;;;;;;;;;;;;2140340;27;19969;-44
2022/04/13 02:13:40;;;;;;;;;;;;;;;;;;2140419;27;19930;-44
2022/04/13 02:14:41;;;;;;;;;;;;;;;;;;2133381;27;19967;-44
2022/04/13 02:15:44;;;;;;;;;;;;;;;;;;2131559;27;20276;-44
2022/04/13 02:16:44;;;;;;;;;;;;;;;;;;2131642;27;19969;-43
2022/04/13 02:17:46;;;;;;;;;;;;;;;;;;2131639;27;20320;-43
2022/04/13 02:18:46;;;;;;;;;;;;;;;;;;2134070;27;19970;-48
2022/04/13 02:19:47;;;;;;;;;;;;;;;;;;2140230;27;19971;-48
2022/04/13 02:20:48;;;;;;;;;;;;;;;;;;2140405;27;20018;-49
2022/04/13 02:21:49;;;;;;;;;;;;;;;;;;2140275;27;20383;-51
2022/04/13 02:22:50;;;;;;;;;;;;;;;;;;2140096;27;19923;-52
2022/04/13 02:23:51;;;;;;;;;;;;;;;;;;2140167;27;20324;-48
2022/04/13 02:24:52;;;;;;;;;;;;;;;;;;2140208;27;20013;-49
2022/04/13 02:25:53;;;;;;;;;;;;;;;;;;2140201;27;20009;-48
2022/04/13 02:26:54;;;;;;;;;;;;;;;;;;2140215;27;20051;-48
2022/04/13 02:27:55;;;;;;;;;;;;;;;;;;2140628;27;19922;-48
2022/04/13 02:28:55;;;;;;;;;;;;;;;;;;2139819;27;20010;-49
2022/04/13 02:29:56;;;;;;;;;;;;;;;;;;2140122;27;20385;-49
2022/04/13 02:30:57;;;;;;;;;;;;;;;;;;2140519;27;20022;-50
2022/04/13 02:31:58;;;;;;;;;;;;;;;;;;2141399;27;20003;-48
2022/04/13 02:32:59;;;;;;;;;;;;;;;;;;2141756;27;19923;-48
2022/04/13 02:34:04;;;;;;;;;;;;;;;;;;2141770;27;20376;-50
2022/04/13 02:35:04;;;;;;;;;;;;;;;;;;2141517;27;20014;-51
2022/04/13 02:36:06;;;;;;;;;;;;;;;;;;2141776;27;19929;-48
2022/04/13 02:37:09;;;;;;;;;;;;;;;;;;2141569;27;20402;-50
2022/04/13 02:38:10;;;;;;;;;;;;;;;;;;2141511;27;20324;-51
2022/04/13 02:39:11;;;;;;;;;;;;;;;;;;2142037;27;19926;-49
2022/04/13 02:40:13;;;;;;;;;;;;;;;;;;2142050;27;20292;-45
2022/04/13 02:41:14;;;;;;;;;;;;;;;;;;2135320;27;20010;-43
2022/04/13 02:42:15;;;;;;;;;;;;;;;;;;2132960;27;19931;-43
2022/04/13 02:43:16;;;;;;;;;;;;;;;;;;2132938;27;20026;-43
2022/04/13 02:44:17;;;;;;;;;;;;;;;;;;2132931;27;19927;-43
2022/04/13 02:45:17;;;;;;;;;;;;;;;;;;2132939;27;20649;-44
2022/04/13 02:46:19;;;;;;;;;;;;;;;;;;2133050;27;19923;-43
2022/04/13 02:47:19;;;;;;;;;;;;;;;;;;2133074;27;19934;-43
2022/04/13 02:48:21;;;;;;;;;;;;;;;;;;2137533;27;20348;-43
2022/04/13 02:49:21;;;;;;;;;;;;;;;;;;2141891;27;20021;-43
2022/04/13 02:50:23;;;;;;;;;;;;;;;;;;2141685;27;20014;-42
2022/04/13 02:51:24;;;;;;;;;;;;;;;;;;2141651;27;20014;-42
2022/04/13 02:52:28;;;;;;;;;;;;;;;;;;2141549;27;19970;-43
2022/04/13 02:53:30;;;;;;;;;;;;;;;;;;2141720;27;19927;-43
2022/04/13 02:54:31;;;;;;;;;;;;;;;;;;2141440;27;20009;-42
2022/04/13 02:55:32;;;;;;;;;;;;;;;;;;2141641;27;19931;-43
2022/04/13 02:56:32;;;;;;;;;;;;;;;;;;2141593;27;19985;-43
2022/04/13 02:57:33;;;;;;;;;;;;;;;;;;2142043;27;19922;-43
2022/04/13 02:58:34;;;;;;;;;;;;;;;;;;2141608;27;19923;-42
2022/04/13 02:59:35;;;;;;;;;;;;;;;;;;2141485;27;20287;-42
2022/04/13 03:00:36;;;;;;;;;;;;;;;;;;2141640;27;19926;-43
2022/04/13 03:01:37;;;;;;;;;;;;;;;;;;2140954;27;20400;-44
2022/04/13 03:02:39;;;;;;;;;;;;;;;;;;2141546;27;20355;-48
2022/04/13 03:03:40;;;;;;;;;;;;;;;;;;2141442;27;20305;-48
2022/04/13 03:04:42;;;;;;;;;;;;;;;;;;2141538;27;20013;-51
2022/04/13 03:05:43;;;;;;;;;;;;;;;;;;2141348;27;19966;-50
2022/04/13 03:06:44;;;;;;;;;;;;;;;;;;2141313;27;20404;-51
2022/04/13 03:07:46;;;;;;;;;;;;;;;;;;2141661;27;19922;-51
2022/04/13 03:08:47;;;;;;;;;;;;;;;;;;2141544;27;20350;-49
2022/04/13 03:09:48;;;;;;;;;;;;;;;;;;2141473;27;19923;-48
2022/04/13 03:10:49;;;;;;;;;;;;;;;;;;2141626;27;19950;-42
2022/04/13 03:11:50;;;;;;;;;;;;;;;;;;2141557;27;20022;-43
2022/04/13 03:12:50;;;;;;;;;;;;;;;;;;2141794;27;19922;-42
2022/04/13 03:13:52;;;;;;;;;;;;;;;;;;2141427;27;20505;-43
2022/04/13 03:14:52;;;;;;;;;;;;;;;;;;2132722;27;19950;-42
2022/04/13 03:15:53;;;;;;;;;;;;;;;;;;2132928;27;20399;-51
2022/04/13 03:16:54;;;;;;;;;;;;;;;;;;2132699;27;19930;-50
2022/04/13 03:17:55;;;;;;;;;;;;;;;;;;2133024;27;19923;-52
2022/04/13 03:18:56;;;;;;;;;;;;;;;;;;2132678;27;19923;-50
2022/04/13 03:19:57;;;;;;;;;;;;;;;;;;2133056;27;19923;-52
2022/04/13 03:20:58;;;;;;;;;;;;;;;;;;2132785;27;19930;-48
2022/04/13 03:21:59;;;;;;;;;;;;;;;;;;2132769;27;20279;-48
2022/04/13 03:23:00;;;;;;;;;;;;;;;;;;2132739;27;20433;-48
2022/04/13 03:24:01;;;;;;;;;;;;;;;;;;2133003;27;20281;-50
2022/04/13 03:25:02;;;;;;;;;;;;;;;;;;2132784;27;19924;-48
2022/04/13 03:26:03;;;;;;;;;;;;;;;;;;2132710;27;19959;-48
2022/04/13 03:27:04;;;;;;;;;;;;;;;;;;2132579;27;19965;-49
2022/04/13 03:28:05;;;;;;;;;;;;;;;;;;2132663;27;19923;-48
2022/04/13 03:29:06;;;;;;;;;;;;;;;;;;2132795;27;19956;-48
2022/04/13 03:30:07;;;;;;;;;;;;;;;;;;2132676;27;20010;-49
2022/04/13 03:31:08;;;;;;;;;;;;;;;;;;2132698;27;20359;-48
2022/04/13 03:32:09;;;;;;;;;;;;;;;;;;2132750;27;19930;-49
2022/04/13 03:33:10;;;;;;;;;;;;;;;;;;2132499;27;20313;-48
2022/04/13 03:34:11;;;;;;;;;;;;;;;;;;2132758;27;19973;-49
2022/04/13 03:35:11;;;;;;;;;;;;;;;;;;2132483;27;20071;-50
2022/04/13 03:36:13;;;;;;;;;;;;;;;;;;2132594;27;19995;-49
2022/04/13 03:37:14;;;;;;;;;;;;;;;;;;2132529;27;20402;-49
2022/04/13 03:38:14;;;;;;;;;;;;;;;;;;2132586;27;19954;-51
2022/04/13 03:39:16;;;;;;;;;;;;;;;;;;2132410;27;19931;-52
2022/04/13 03:40:17;;;;;;;;;;;;;;;;;;2132784;27;19973;-43
2022/04/13 03:41:18;;;;;;;;;;;;;;;;;;2132786;27;20009;-44
2022/04/13 03:42:19;;;;;;;;;;;;;;;;;;2132351;27;19983;-52
2022/04/13 03:43:20;;;;;;;;;;;;;;;;;;2132755;27;19978;-43
2022/04/13 03:44:20;;;;;;;;;;;;;;;;;;2134545;27;19966;-44
2022/04/13 03:45:21;;;;;;;;;;;;;;;;;;2141516;27;19927;-49
2022/04/13 03:46:22;;;;;;;;;;;;;;;;;;2141044;27;19993;-49
2022/04/13 03:47:23;;;;;;;;;;;;;;;;;;2141484;27;19922;-44
2022/04/13 03:48:24;;;;;;;;;;;;;;;;;;2141233;27;19954;-43
2022/04/13 03:49:27;;;;;;;;;;;;;;;;;;2141345;27;20486;-43
2022/04/13 03:50:28;;;;;;;;;;;;;;;;;;2141123;27;20350;-43
2022/04/13 03:51:29;;;;;;;;;;;;;;;;;;2141211;27;20025;-43
2022/04/13 03:52:30;;;;;;;;;;;;;;;;;;2141470;27;20024;-43
2022/04/13 03:53:31;;;;;;;;;;;;;;;;;;2141181;27;19923;-43
2022/04/13 03:54:31;;;;;;;;;;;;;;;;;;2141239;27;20009;-43
2022/04/13 03:55:33;;;;;;;;;;;;;;;;;;2141024;27;19926;-43
2022/04/13 03:56:34;;;;;;;;;;;;;;;;;;2140997;27;19961;-43
2022/04/13 03:57:34;;;;;;;;;;;;;;;;;;2141003;27;20414;-43
2022/04/13 03:58:35;;;;;;;;;;;;;;;;;;2141572;27;19922;-43
2022/04/13 03:59:36;;;;;;;;;;;;;;;;;;2141057;27;20017;-43
2022/04/13 04:00:37;;;;;;;;;;;;;;;;;;2141006;27;19975;-43
2022/04/13 04:01:38;;;;;;;;;;;;;;;;;;2141230;27;20255;-49
2022/04/13 04:02:39;;;;;;;;;;;;;;;;;;2141519;27;19923;-52
2022/04/13 04:03:40;;;;;;;;;;;;;;;;;;2140981;27;20342;-49
2022/04/13 04:04:41;;;;;;;;;;;;;;;;;;2141161;27;19927;-48
2022/04/13 04:05:42;;;;;;;;;;;;;;;;;;2141189;27;19974;-54
2022/04/13 04:06:43;;;;;;;;;;;;;;;;;;2140858;27;19927;-49
2022/04/13 04:07:44;;;;;;;;;;;;;;;;;;2141446;27;20014;-43
2022/04/13 04:08:45;;;;;;;;;;;;;;;;;;2141068;27;20017;-43
2022/04/13 04:09:46;;;;;;;;;;;;;;;;;;2141013;27;20333;-43
2022/04/13 04:10:47;;;;;;;;;;;;;;;;;;2141351;27;20005;-51
2022/04/13 04:11:48;;;;;;;;;;;;;;;;;;2141146;27;19923;-50
2022/04/13 04:12:49;;;;;;;;;;;;;;;;;;2140989;27;19933;-50
2022/04/13 04:13:50;;;;;;;;;;;;;;;;;;2141244;27;20358;-54
2022/04/13 04:14:51;;;;;;;;;;;;;;;;;;2140841;27;20013;-50
2022/04/13 04:15:52;;;;;;;;;;;;;;;;;;2140942;27;19928;-53
2022/04/13 04:16:53;;;;;;;;;;;;;;;;;;2140932;27;20294;-51
2022/04/13 04:17:54;;;;;;;;;;;;;;;;;;2140834;27;20021;-52
2022/04/13 04:18:54;;;;;;;;;;;;;;;;;;2141232;27;20010;-52
2022/04/13 04:19:55;;;;;;;;;;;;;;;;;;2140973;27;20268;-52
2022/04/13 04:20:56;;;;;;;;;;;;;;;;;;2141113;27;19923;-44
2022/04/13 04:21:57;;;;;;;;;;;;;;;;;;2140836;27;20014;-44
2022/04/13 04:22:58;;;;;;;;;;;;;;;;;;2141094;27;19962;-44
2022/04/13 04:23:59;;;;;;;;;;;;;;;;;;2140905;27;19923;-44
2022/04/13 04:25:00;;;;;;;;;;;;;;;;;;2140910;27;20021;-44
2022/04/13 04:26:01;;;;;;;;;;;;;;;;;;2140986;27;19937;-44
2022/04/13 04:27:02;;;;;;;;;;;;;;;;;;2140828;27;19973;-42
2022/04/13 04:28:03;;;;;;;;;;;;;;;;;;2141004;27;19922;-44
2022/04/13 04:29:04;;;;;;;;;;;;;;;;;;2141074;27;20013;-50
2022/04/13 04:30:05;;;;;;;;;;;;;;;;;;2141086;27;19922;-51
2022/04/13 04:31:06;;;;;;;;;;;;;;;;;;2140950;27;19923;-44
2022/04/13 04:32:07;;;;;;;;;;;;;;;;;;2141148;27;19970;-53
2022/04/13 04:33:08;;;;;;;;;;;;;;;;;;2140918;27;19929;-44
2022/04/13 04:34:09;;;;;;;;;;;;;;;;;;2140912;27;19923;-44
2022/04/13 04:35:10;;;;;;;;;;;;;;;;;;2140861;27;19958;-44
2022/04/13 04:36:11;;;;;;;;;;;;;;;;;;2140942;27;19969;-50
2022/04/13 04:37:12;;;;;;;;;;;;;;;;;;2140837;27;19930;-50
2022/04/13 04:38:14;;;;;;;;;;;;;;;;;;2141012;27;20401;-44
2022/04/13 04:39:15;;;;;;;;;;;;;;;;;;2140957;27;19958;-43
2022/04/13 04:40:16;;;;;;;;;;;;;;;;;;2140785;27;19977;-44
2022/04/13 04:41:18;;;;;;;;;;;;;;;;;;2140502;27;20291;-43
2022/04/13 04:42:18;;;;;;;;;;;;;;;;;;2140792;27;20570;-43
2022/04/13 04:43:20;;;;;;;;;;;;;;;;;;2140823;27;19949;-44
2022/04/13 04:44:21;;;;;;;;;;;;;;;;;;2141023;27;19959;-43
2022/04/13 04:45:22;;;;;;;;;;;;;;;;;;2140889;27;20009;-43
2022/04/13 04:46:23;;;;;;;;;;;;;;;;;;2140816;27;19922;-44
2022/04/13 04:47:24;;;;;;;;;;;;;;;;;;2140662;27;20052;-44
2022/04/13 04:48:24;;;;;;;;;;;;;;;;;;2141102;27;19993;-52
2022/04/13 04:49:25;;;;;;;;;;;;;;;;;;2140753;27;19937;-50
2022/04/13 04:50:26;;;;;;;;;;;;;;;;;;2140907;27;19926;-51
2022/04/13 04:51:27;;;;;;;;;;;;;;;;;;2140895;27;19923;-49
2022/04/13 04:52:28;;;;;;;;;;;;;;;;;;2140739;27;19965;-50
2022/04/13 04:53:29;;;;;;;;;;;;;;;;;;2140959;27;19923;-50
2022/04/13 04:54:30;;;;;;;;;;;;;;;;;;2140275;27;19925;-51
2022/04/13 04:55:31;;;;;;;;;;;;;;;;;;2140990;27;19922;-50
2022/04/13 04:56:34;;;;;;;;;;;;;;;;;;2140661;27;20021;-49
2022/04/13 04:57:35;;;;;;;;;;;;;;;;;;2140873;27;20009;-49
2022/04/13 04:58:35;;;;;;;;;;;;;;;;;;2140807;27;19922;-43
2022/04/13 04:59:36;;;;;;;;;;;;;;;;;;2140694;27;19923;-43
2022/04/13 05:00:39;;;;;;;;;;;;;;;;;;2141172;27;19951;-49
2022/04/13 05:01:40;;;;;;;;;;;;;;;;;;2140974;27;20013;-43
2022/04/13 05:02:40;;;;;;;;;;;;;;;;;;2140740;27;19950;-43
2022/04/13 05:03:43;;;;;;;;;;;;;;;;;;2140825;27;20358;-43
2022/04/13 05:04:44;;;;;;;;;;;;;;;;;;2140641;27;19923;-43
2022/04/13 05:05:45;;;;;;;;;;;;;;;;;;2140831;27;19989;-43
2022/04/13 05:06:45;;;;;;;;;;;;;;;;;;2140734;27;20003;-43
2022/04/13 05:07:46;;;;;;;;;;;;;;;;;;2140666;27;20075;-43
2022/04/13 05:08:47;;;;;;;;;;;;;;;;;;2140653;27;20436;-43
2022/04/13 05:09:48;;;;;;;;;;;;;;;;;;2140577;27;19923;-43
2022/04/13 05:10:51;;;;;;;;;;;;;;;;;;2140855;27;20013;-49
2022/04/13 05:11:52;;;;;;;;;;;;;;;;;;2140565;27;19962;-50
2022/04/13 05:12:56;;;;;;;;;;;;;;;;;;2140847;27;19946;-43
2022/04/13 05:13:58;;;;;;;;;;;;;;;;;;2140307;27;19940;-43
2022/04/13 05:14:58;;;;;;;;;;;;;;;;;;2140507;27;20096;-43
2022/04/13 05:15:59;;;;;;;;;;;;;;;;;;2140824;27;20028;-43
2022/04/13 05:17:01;;;;;;;;;;;;;;;;;;2140470;27;20585;-43
2022/04/13 05:18:06;;;;;;;;;;;;;;;;;;2140558;27;19922;-50
2022/04/13 05:19:07;;;;;;;;;;;;;;;;;;2140509;27;20375;-49
2022/04/13 05:20:08;;;;;;;;;;;;;;;;;;2140698;27;20010;-50
2022/04/13 05:21:09;;;;;;;;;;;;;;;;;;2140756;27;20265;-50
2022/04/13 05:22:09;;;;;;;;;;;;;;;;;;2140662;27;19969;-50
2022/04/13 05:23:10;;;;;;;;;;;;;;;;;;2140509;27;20001;-49
2022/04/13 05:24:11;;;;;;;;;;;;;;;;;;2140470;27;19970;-49
2022/04/13 05:25:12;;;;;;;;;;;;;;;;;;2140801;27;19922;-43
2022/04/13 05:26:18;;;;;;;;;;;;;;;;;;2141056;27;20075;-52
2022/04/13 05:27:19;;;;;;;;;;;;;;;;;;2140776;27;20013;-50
2022/04/13 05:28:20;;;;;;;;;;;;;;;;;;2141246;27;19956;-49
2022/04/13 05:29:21;;;;;;;;;;;;;;;;;;2140286;27;19923;-50
2022/04/13 05:30:22;;;;;;;;;;;;;;;;;;2140940;27;19969;-44
2022/04/13 05:31:24;;;;;;;;;;;;;;;;;;2140400;27;20014;-44
2022/04/13 05:32:24;;;;;;;;;;;;;;;;;;2140340;27;19967;-44
2022/04/13 05:33:25;;;;;;;;;;;;;;;;;;2140527;27;20674;-45
2022/04/13 05:34:26;;;;;;;;;;;;;;;;;;2140536;27;19927;-44
2022/04/13 05:35:27;;;;;;;;;;;;;;;;;;2140522;27;20062;-44
2022/04/13 05:36:28;;;;;;;;;;;;;;;;;;2140644;27;19942;-49
2022/04/13 05:37:29;;;;;;;;;;;;;;;;;;2140366;27;19929;-50
2022/04/13 05:38:30;;;;;;;;;;;;;;;;;;2140457;27;20014;-50
2022/04/13 05:39:31;;;;;;;;;;;;;;;;;;2140525;27;20359;-51
2022/04/13 05:40:32;;;;;;;;;;;;;;;;;;2140591;27;20295;-50
2022/04/13 05:41:33;;;;;;;;;;;;;;;;;;2140224;27;20013;-50
2022/04/13 05:42:34;;;;;;;;;;;;;;;;;;2140539;27;19923;-49
2022/04/13 05:43:36;;;;;;;;;;;;;;;;;;2140633;27;20275;-43
2022/04/13 05:44:36;;;;;;;;;;;;;;;;;;2140307;27;20383;-44
2022/04/13 05:45:37;;;;;;;;;;;;;;;;;;2140386;27;20017;-44
2022/04/13 05:46:38;;;;;;;;;;;;;;;;;;2140664;27;20005;-43
2022/04/13 05:47:39;;;;;;;;;;;;;;;;;;2140334;27;20354;-44
2022/04/13 05:48:40;;;;;;;;;;;;;;;;;;2140680;27;19958;-49
2022/04/13 05:49:41;;;;;;;;;;;;;;;;;;2140583;27;19950;-43
2022/04/13 05:50:42;;;;;;;;;;;;;;;;;;2140691;27;19964;-48
2022/04/13 05:51:43;;;;;;;;;;;;;;;;;;2140471;27;20574;-49
2022/04/13 05:52:44;;;;;;;;;;;;;;;;;;2140464;27;19930;-49
2022/04/13 05:53:45;;;;;;;;;;;;;;;;;;2140468;27;19962;-49
2022/04/13 05:54:47;;;;;;;;;;;;;;;;;;2140873;27;20041;-44
2022/04/13 05:55:49;;;;;;;;;;;;;;;;;;2140256;27;20427;-51
2022/04/13 05:56:50;;;;;;;;;;;;;;;;;;2140223;27;20470;-52
2022/04/13 05:57:51;;;;;;;;;;;;;;;;;;2140694;27;19923;-52
2022/04/13 05:58:52;;;;;;;;;;;;;;;;;;2140560;27;20007;-44
2022/04/13 05:59:53;;;;;;;;;;;;;;;;;;2140391;27;20009;-43
2022/04/13 06:00:54;;;;;;;;;;;;;;;;;;2140484;27;20353;-43
2022/04/13 06:01:55;;;;;;;;;;;;;;;;;;2140609;27;19923;-51
2022/04/13 06:02:56;;;;;;;;;;;;;;;;;;2140193;27;20298;-49
2022/04/13 06:03:58;;;;;;;;;;;;;;;;;;2140507;27;19923;-51
2022/04/13 06:04:59;;;;;;;;;;;;;;;;;;2140164;27;20581;-49
2022/04/13 06:06:00;;;;;;;;;;;;;;;;;;2140269;27;20005;-43
2022/04/13 06:07:01;;;;;;;;;;;;;;;;;;2140188;27;20276;-43
2022/04/13 06:08:02;;;;;;;;;;;;;;;;;;2140333;27;20347;-42
2022/04/13 06:09:03;;;;;;;;;;;;;;;;;;2139946;27;19961;-50
2022/04/13 06:10:05;;;;;;;;;;;;;;;;;;2140362;27;19931;-49
2022/04/13 06:11:06;;;;;;;;;;;;;;;;;;2140722;27;19987;-43
2022/04/13 06:12:07;;;;;;;;;;;;;;;;;;2140050;27;19967;-43
2022/04/13 06:13:08;;;;;;;;;;;;;;;;;;2140334;27;19926;-43
2022/04/13 06:14:09;;;;;;;;;;;;;;;;;;2137991;27;19923;-43
2022/04/13 06:15:10;;;;;;;;;;;;;;;;;;2131562;27;20391;-43
2022/04/13 06:16:11;;;;;;;;;;;;;;;;;;2131662;27;20066;-43
2022/04/13 06:17:11;;;;;;;;;;;;;;;;;;2131904;27;20394;-48
2022/04/13 06:18:12;;;;;;;;;;;;;;;;;;2131673;27;19923;-48
2022/04/13 06:19:14;;;;;;;;;;;;;;;;;;2131773;27;20041;-43
2022/04/13 06:20:14;;;;;;;;;;;;;;;;;;2131946;27;19954;-43
2022/04/13 06:21:15;;;;;;;;;;;;;;;;;;2131553;27;20299;-43
2022/04/13 06:22:16;;;;;;;;;;;;;;;;;;2132011;27;19997;-50
2022/04/13 06:23:18;;;;;;;;;;;;;;;;;;2131464;27;20588;-51
2022/04/13 06:24:19;;;;;;;;;;;;;;;;;;2131655;27;20045;-51
2022/04/13 06:25:20;;;;;;;;;;;;;;;;;;2131645;27;20044;-50
2022/04/13 06:26:20;;;;;;;;;;;;;;;;;;2131313;27;19927;-49
2022/04/13 06:27:21;;;;;;;;;;;;;;;;;;2131480;27;19927;-49
2022/04/13 06:28:22;;;;;;;;;;;;;;;;;;2131534;27;20021;-49
2022/04/13 06:29:23;;;;;;;;;;;;;;;;;;2131877;27;19967;-48
2022/04/13 06:30:24;;;;;;;;;;;;;;;;;;2131468;27;19923;-51
2022/04/13 06:31:25;;;;;;;;;;;;;;;;;;2131550;27;19962;-49
2022/04/13 06:32:26;;;;;;;;;;;;;;;;;;2131650;27;19915;-49
2022/04/13 06:33:27;;;;;;;;;;;;;;;;;;2136641;27;20355;-48
2022/04/13 06:34:29;;;;;;;;;;;;;;;;;;2140302;27;19922;-43
2022/04/13 06:35:30;;;;;;;;;;;;;;;;;;2140156;27;19977;-43
2022/04/13 06:36:31;;;;;;;;;;;;;;;;;;2140120;27;20006;-43
2022/04/13 06:37:32;;;;;;;;;;;;;;;;;;2140068;27;20587;-43
2022/04/13 06:38:32;;;;;;;;;;;;;;;;;;2140201;27;20052;-43
2022/04/13 06:39:33;;;;;;;;;;;;;;;;;;2139906;27;19929;-42
2022/04/13 06:40:35;;;;;;;;;;;;;;;;;;2140175;27;20232;-43
2022/04/13 06:41:35;;;;;;;;;;;;;;;;;;2140104;27;19966;-43
2022/04/13 06:42:37;;;;;;;;;;;;;;;;;;2140006;27;19922;-43
2022/04/13 06:43:37;;;;;;;;;;;;;;;;;;2140138;27;19980;-43
2022/04/13 06:44:38;;;;;;;;;;;;;;;;;;2140526;27;19922;-49
2022/04/13 06:45:40;;;;;;;;;;;;;;;;;;2140160;27;20014;-51
2022/04/13 06:46:41;;;;;;;;;;;;;;;;;;2139932;27;19931;-48
2022/04/13 06:47:44;;;;;;;;;;;;;;;;;;2140181;27;19923;-43
2022/04/13 06:48:45;;;;;;;;;;;;;;;;;;2139972;27;19923;-43
2022/04/13 06:49:46;;;;;;;;;;;;;;;;;;2140128;27;20475;-43
2022/04/13 06:50:47;;;;;;;;;;;;;;;;;;2140037;27;20060;-43
2022/04/13 06:51:48;;;;;;;;;;;;;;;;;;2140112;27;20379;-43
2022/04/13 06:52:49;;;;;;;;;;;;;;;;;;2140430;27;20403;-48
2022/04/13 06:53:50;;;;;;;;;;;;;;;;;;2140238;27;20009;-50
2022/04/13 06:54:51;;;;;;;;;;;;;;;;;;2139950;27;19922;-48
2022/04/13 06:55:52;;;;;;;;;;;;;;;;;;2140001;27;19958;-49
2022/04/13 06:56:53;;;;;;;;;;;;;;;;;;2140181;27;20371;-49